Latest Weather Observations for Dennes Point

IDT60801

Issued at 10:05 pm EST Tuesday 30 September 2014 (issued every 30 minutes, with the page automatically refreshed every 10 minutes)

About weather observations | Map of weather stations | Latest weather observations for TAS | Other Formats
Station Details ID: 094255 Name: DENNES POINT Lat: -43.06 Lon: 147.36 Height: 5.67 m
Data from the previous 72 hours. | See also: Recent months at Dennes Point
Date/Time
EST
Temp
°C
App
Temp
°C
Dew
Point
Rel
Hum
%
Delta-T
°C
Wind Press
QNH
hPa
Press
MSL
hPa
Rain
since 9 am
mm
Dir
 
Spd
km/h
Gust
km/h
Spd
kts
Gust
kts
30/10:00pm 7.9 0.7 2.8 70 2.2 WSW 30 37 16 20 1001.6 1001.7 5.6
30/09:30pm 8.6 0.7 2.0 63 2.8 WSW 33 48 18 26 1001.1 1001.2 5.6
30/09:00pm 8.4 2.6 2.2 65 2.6 W 22 32 12 17 1000.7 1000.8 5.6
30/08:30pm 8.4 2.4 3.3 70 2.2 W 24 30 13 16 1000.2 1000.3 5.6
30/08:00pm 8.3 1.1 2.8 68 2.3 WSW 30 39 16 21 999.3 999.3 5.6
30/07:30pm 8.5 1.4 3.4 70 2.2 W 30 41 16 22 998.6 998.6 5.6
30/07:00pm 8.5 1.4 3.4 70 2.2 WSW 30 37 16 20 997.9 997.9 5.6
30/06:30pm 8.9 -0.1 4.3 73 2.0 W 41 59 22 32 997.2 997.2 5.6
30/06:00pm 9.7 2.0 5.5 75 1.9 W 35 48 19 26 996.8 996.8 5.6
30/05:36pm 10.5 4.2 5.9 73 2.1 W 28 48 15 26 995.9 995.9 5.6
30/05:30pm 10.6 5.2 6.2 74 2.0 WSW 24 37 13 20 995.7 995.7 5.6
30/05:00pm 11.3 7.7 6.8 74 2.2 SW 15 20 8 11 994.7 994.7 5.6
30/04:30pm 11.8 9.6 7.7 76 2.0 SSW 9 13 5 7 993.9 993.9 5.6
30/04:00pm 11.3 9.0 7.4 77 1.9 SSW 9 13 5 7 993.7 993.7 5.6
30/03:30pm 11.7 9.6 8.2 79 1.7 SW 9 13 5 7 993.1 993.1 5.6
30/03:00pm 10.3 8.1 7.9 85 1.2 SSW 9 13 5 7 993.6 993.6 5.6
30/02:30pm 10.5 8.4 8.3 86 1.1 SW 9 13 5 7 994.0 994.0 5.6
30/02:00pm 10.8 6.7 7.9 82 1.4 SW 19 28 10 15 993.8 993.8 5.4
30/01:30pm 11.3 7.1 8.3 82 1.5 SSW 20 32 11 17 994.0 994.0 1.2
30/01:00pm 14.8 11.5 8.1 64 3.4 SSW 15 20 8 11 992.5 992.5 0.0
30/12:30pm 15.0 12.1 8.0 63 3.5 SSW 13 20 7 11 992.9 992.9 0.0
30/12:00pm 16.4 13.6 8.4 59 4.1 W 13 20 7 11 993.4 993.4 0.0
30/11:30am 16.4 13.1 7.9 57 4.3 W 15 20 8 11 994.0 994.0 0.0
30/11:00am 17.0 11.7 6.8 51 5.1 W 24 43 13 23 994.2 994.2 0.0
30/10:30am 17.2 12.6 6.7 50 5.2 NNW 20 33 11 18 994.4 994.4 0.0
30/10:00am 16.8 11.8 6.3 50 5.2 N 22 35 12 19 994.7 994.7 0.0
30/09:30am 15.8 12.5 6.5 54 4.5 N 13 20 7 11 995.2 995.2 0.0
30/09:00am 15.4 11.0 6.4 55 4.4 N 19 32 10 17 995.6 995.6 0.0
30/08:30am 15.4 11.0 6.7 56 4.2 N 19 26 10 14 996.2 996.2 0.0
30/08:00am 15.5 11.0 6.2 54 4.5 N 19 26 10 14 996.6 996.6 0.0
30/07:31am 14.5 8.3 6.1 57 4.0 N 28 46 15 25 996.8 996.8 0.0
30/07:30am 14.4 7.8 6.0 57 4.0 N 30 46 16 25 996.7 996.7 0.0
30/07:00am 14.7 6.7 5.8 55 4.3 N 37 61 20 33 996.3 996.3 0.0
30/06:30am 13.9 6.1 6.5 61 3.6 N 37 56 20 30 996.6 996.6 0.0
30/06:28am 13.9 6.0 6.3 60 3.6 N 37 56 20 30 996.6 996.6 0.0
30/06:00am 14.0 6.7 7.1 63 3.4 N 35 50 19 27 996.9 996.9 0.0
30/05:46am 14.0 7.9 6.8 62 3.5 N 28 46 15 25 997.0 997.0 0.0
30/05:30am 14.0 9.5 7.1 63 3.4 N 20 28 11 15 997.5 997.5 0.0
30/05:00am 14.1 11.5 6.2 59 3.8 NNW 9 22 5 12 997.9 997.9 0.0
30/04:30am 14.6 10.0 5.4 54 4.4 NNW 19 35 10 19 998.2 998.2 0.0
30/04:00am 14.2 9.8 6.6 60 3.7 N 19 26 10 14 998.7 998.7 0.0
30/03:30am 14.4 9.8 6.3 58 3.9 N 20 32 11 17 998.8 998.8 0.0
30/03:00am 14.6 10.3 5.1 53 4.5 N 17 26 9 14 999.2 999.2 0.0
30/02:30am 15.0 9.6 4.4 49 4.9 N 22 33 12 18 999.7 999.7 0.0
30/02:00am 14.8 10.1 5.1 52 4.6 NNW 19 26 10 14 1000.0 1000.0 0.0
30/01:30am 14.4 11.3 5.7 56 4.1 N 11 17 6 9 1000.3 1000.4 0.0
30/01:00am 14.3 9.8 6.2 58 3.9 N 19 22 10 12 1000.7 1000.8 0.0
30/12:30am 13.8 10.7 7.1 64 3.3 NNE 13 17 7 9 1001.1 1001.2 0.0
30/12:00am 14.3 11.4 4.6 52 4.5 NNW 9 24 5 13 1001.5 1001.6 0.0
 
Date/Time
EST
Temp
°C
App
Temp
°C
Dew
Point
Rel
Hum
%
Delta-T
°C
Wind Press
QNH
hPa
Press
MSL
hPa
Rain
since 9 am
mm
Dir
 
Spd
km/h
Gust
km/h
Spd
kts
Gust
kts
29/11:30pm 13.2 11.0 6.1 62 3.4 NE 7 11 4 6 1001.7 1001.8 0.0
29/11:00pm 13.2 11.3 7.4 68 2.8 NNE 7 13 4 7 1001.9 1002.0 0.0
29/10:30pm 13.7 10.5 6.8 63 3.3 NNE 13 19 7 10 1002.1 1002.1 0.0
29/10:00pm 13.6 9.3 6.9 64 3.3 N 19 22 10 12 1002.5 1002.5 0.0
29/09:30pm 13.8 9.3 6.2 60 3.6 N 19 24 10 13 1002.6 1002.6 0.0
29/09:00pm 14.0 9.0 3.8 50 4.7 N 19 28 10 15 1002.6 1002.6 0.0
29/08:30pm 13.8 11.3 4.7 54 4.2 N 7 13 4 7 1002.8 1002.8 0.0
29/08:00pm 13.9 11.1 3.4 49 4.7 NW 7 17 4 9 1002.9 1002.9 0.0
29/07:30pm 14.2 11.9 5.6 56 4.1 NNW 7 13 4 7 1002.6 1002.6 0.0
29/07:00pm 15.1 12.1 3.9 47 5.2 WNW 9 13 5 7 1002.8 1002.8 0.0
29/06:30pm 15.6 11.0 3.7 45 5.5 WNW 17 24 9 13 1002.5 1002.5 0.0
29/06:00pm 15.9 11.7 5.5 50 5.0 NNW 17 22 9 12 1002.3 1002.3 0.0
29/05:30pm 16.4 12.1 5.1 47 5.4 NNW 17 24 9 13 1002.1 1002.1 0.0
29/05:00pm 16.2 11.4 5.5 49 5.2 NNW 20 26 11 14 1001.7 1001.8 0.0
29/04:30pm 16.5 11.2 5.2 47 5.4 NNW 22 32 12 17 1001.5 1001.6 0.0
29/04:00pm 16.6 11.8 4.6 45 5.7 N 19 28 10 15 1001.4 1001.5 0.0
29/03:30pm 17.7 13.5 3.9 40 6.5 NNW 15 20 8 11 1001.5 1001.6 0.0
29/03:00pm 18.2 15.4 5.1 42 6.4 WNW 9 15 5 8 1002.1 1002.1 0.0
29/02:30pm 18.0 12.6 1.1 32 7.5 WNW 19 33 10 18 1002.4 1002.4 0.0
29/02:00pm 18.2 11.2 2.1 34 7.3 W 28 43 15 23 1002.5 1002.5 0.0
29/01:30pm 18.1 11.2 2.8 36 7.0 W 28 46 15 25 1002.8 1002.8 0.0
29/01:00pm 17.8 13.4 2.9 37 6.9 WNW 15 28 8 15 1003.0 1003.0 0.0
29/12:30pm 16.4 11.3 0.9 35 6.8 NW 17 30 9 16 1003.5 1003.5 0.0
29/12:00pm 16.1 7.8 2.2 39 6.2 W 35 52 19 28 1003.7 1003.7 0.0
29/11:30am 16.1 8.6 4.2 45 5.5 W 33 48 18 26 1003.3 1003.3 0.0
29/11:00am 16.2 10.2 3.3 42 5.9 W 24 33 13 18 1003.1 1003.1 0.0
29/10:30am 15.2 6.9 2.4 42 5.7 W 35 48 19 26 1003.2 1003.2 0.0
29/10:00am 14.6 3.2 2.8 45 5.3 W 52 74 28 40 1003.0 1003.0 0.0
29/09:30am 13.9 3.2 2.8 47 4.9 W 48 72 26 39 1002.8 1002.8 0.0
29/09:18am 13.6 2.8 3.9 52 4.4 W 50 69 27 37 1002.9 1002.9 0.0
29/09:00am 13.2 1.5 3.6 52 4.3 W 54 70 29 38 1002.8 1002.8 0.0
29/08:41am 13.5 4.0 4.9 56 4.0 W 44 69 24 37 1002.5 1002.5 0.0
29/08:30am 13.2 4.6 4.6 56 3.9 W 39 50 21 27 1002.2 1002.2 0.0
29/08:00am 12.7 5.8 4.4 57 3.8 W 30 37 16 20 1002.1 1002.1 0.0
29/07:30am 12.1 3.8 4.1 58 3.6 W 37 54 20 29 1001.7 1001.8 0.0
29/07:00am 11.7 4.2 4.7 62 3.2 W 33 43 18 23 1001.3 1001.4 0.0
29/06:39am 11.7 5.1 4.4 61 3.3 W 28 44 15 24 1001.1 1001.2 0.0
29/06:30am 11.4 6.6 4.8 64 3.0 W 19 24 10 13 1001.1 1001.2 0.0
29/06:00am 10.6 7.7 4.5 66 2.8 WNW 9 22 5 12 1000.2 1000.3 0.0
29/05:30am 10.0 7.0 4.2 67 2.6 S 9 19 5 10 999.7 999.7 0.0
29/05:00am 10.4 7.8 4.3 66 2.7 NW 7 19 4 10 999.3 999.3 0.0
29/04:30am 10.6 4.1 4.9 68 2.6 W 28 41 15 22 998.9 998.9 0.0
29/04:00am 10.8 3.9 6.6 75 2.0 W 32 41 17 22 998.4 998.4 0.0
29/03:30am 12.1 6.0 6.4 68 2.7 W 28 39 15 21 997.3 997.3 0.0
29/03:00am 13.9 9.8 4.5 53 4.4 NNW 15 20 8 11 995.7 995.7 0.0
29/02:30am 13.5 9.3 5.7 59 3.7 N 17 20 9 11 995.3 995.3 0.0
29/02:00am 14.0 9.0 4.6 53 4.4 N 20 35 11 19 995.5 995.5 0.0
29/01:30am 13.9 8.9 3.7 50 4.6 NW 19 26 10 14 996.2 996.2 0.0
29/01:00am 14.4 8.5 4.1 50 4.8 WNW 24 32 13 17 996.3 996.3 0.0
29/12:30am 14.5 10.5 4.8 52 4.5 WNW 15 24 8 13 996.6 996.6 0.0
29/12:00am 14.4 10.6 5.7 56 4.2 WNW 15 26 8 14 996.5 996.5 0.0
 
Date/Time
EST
Temp
°C
App
Temp
°C
Dew
Point
Rel
Hum
%
Delta-T
°C
Wind Press
QNH
hPa
Press
MSL
hPa
Rain
since 9 am
mm
Dir
 
Spd
km/h
Gust
km/h
Spd
kts
Gust
kts
28/11:30pm 15.3 11.3 6.6 56 4.2 WNW 17 24 9 13 996.5 996.5 0.0
28/11:00pm 15.1 14.1 9.0 67 3.1 SW 4 6 2 3 996.4 996.4 0.0
28/10:30pm 15.2 14.5 10.2 72 2.6 W 4 7 2 4 996.6 996.6 0.0
28/10:00pm 15.9 13.1 10.0 68 3.1 W 15 19 8 10 996.7 996.7 0.0
28/09:30pm 14.9 13.0 10.5 75 2.3 W 11 13 6 7 996.8 996.8 0.0
28/09:00pm 17.1 13.5 9.8 62 3.9 WSW 19 22 10 12 997.2 997.2 0.0
28/08:30pm 18.4 14.9 8.9 54 4.9 NW 17 28 9 15 997.0 997.0 0.0
28/08:00pm 19.2 14.4 8.8 51 5.5 NNW 24 35 13 19 997.1 997.1 0.0
28/07:30pm 19.5 15.4 8.8 50 5.6 NNW 20 26 11 14 996.9 996.9 0.0
28/07:00pm 19.4 16.9 8.1 48 5.9 WSW 11 19 6 10 996.6 996.6 0.0
28/06:30pm 19.5 15.6 8.5 49 5.7 W 19 30 10 16 996.3 996.3 0.0
28/06:00pm 21.7 16.8 6.8 38 7.7 NW 22 35 12 19 995.8 995.8 0.0
28/05:47pm 21.6 15.2 7.1 39 7.4 NW 30 54 16 29 995.8 995.8 0.0
28/05:30pm 22.0 15.9 6.7 37 7.8 NW 28 44 15 24 995.7 995.7 0.0
28/05:00pm 21.8 13.7 6.9 38 7.7 NNW 39 54 21 29 995.5 995.5 0.0
28/04:36pm 22.2 14.0 6.4 36 8.0 NNW 39 57 21 31 995.3 995.3 0.0
28/04:30pm 22.1 13.8 6.3 36 8.0 NW 39 56 21 30 995.1 995.1 0.0
28/04:06pm 21.9 13.7 6.6 37 7.8 NNW 39 59 21 32 995.5 995.5 0.0
28/04:00pm 21.4 13.3 6.9 39 7.5 NNW 39 57 21 31 995.4 995.4 0.0
28/03:30pm 22.3 12.0 6.5 36 8.1 NNW 50 72 27 39 995.9 995.9 0.0
28/03:00pm 22.8 13.7 5.7 33 8.7 NW 43 67 23 36 996.9 996.9 0.0
28/02:46pm 23.0 13.8 5.4 32 8.8 NW 43 63 23 34 996.8 996.8 0.0
28/02:45pm 23.3 15.3 5.7 32 8.9 NW 37 50 20 27 996.9 996.9 0.0
28/02:30pm 23.6 11.9 5.5 31 9.1 NNW 56 82 30 44 996.5 996.5 0.0
28/02:00pm 24.2 14.7 5.1 29 9.7 NW 44 78 24 42 996.8 996.8 0.0
28/01:44pm 24.9 15.6 5.2 28 10.0 WNW 43 85 23 46 996.7 996.7 0.0
28/01:30pm 24.7 16.8 6.0 30 9.6 NW 37 59 20 32 996.9 996.9 0.0
28/01:00pm 24.8 15.0 5.1 28 10.0 NNW 46 65 25 35 996.8 996.8 0.0
28/12:30pm 26.4 16.1 4.8 25 11.0 NNW 48 85 26 46 997.3 997.3 0.0
28/12:26pm 26.1 16.0 4.0 24 11.0 NNW 46 85 25 46 997.3 997.3 0.0
28/12:23pm 26.6 18.1 5.0 25 11.0 NW 39 59 21 32 997.4 997.4 0.0
28/12:21pm 25.8 17.8 5.9 28 10.3 NW 37 52 20 28 997.4 997.4 0.0
28/12:07pm 25.7 13.8 5.3 27 10.4 NNW 57 76 31 41 997.7 997.7 0.0
28/12:05pm 26.0 12.8 4.5 25 10.8 NNW 63 76 34 41 997.9 997.9 0.0
28/12:02pm 25.8 17.0 5.4 27 10.4 NW 41 72 22 39 998.0 998.0 0.0
28/12:00pm 26.5 18.1 5.5 26 10.9 WNW 39 54 21 29 997.8 997.8 0.0
28/11:58am 27.1 19.0 5.4 25 11.2 WNW 37 54 20 29 997.7 997.7 0.0
28/11:52am 25.8 16.4 5.4 27 10.4 NW 44 82 24 44 997.9 997.9 0.0
28/11:30am 26.6 18.6 5.5 26 10.8 NW 37 61 20 33 998.0 998.0 0.0
28/11:13am 24.3 18.1 7.9 35 8.7 NW 30 52 16 28 998.5 998.5 0.0
28/11:00am 20.6 15.4 10.4 52 5.6 N 28 39 15 21 998.6 998.6 0.0
28/10:30am 19.0 16.0 10.6 58 4.5 NNW 17 24 9 13 999.4 999.4 0.0
28/10:00am 18.4 12.3 10.3 59 4.4 N 33 44 18 24 999.8 999.8 0.0
28/09:51am 18.0 11.1 10.4 61 4.1 N 37 57 20 31 1000.1 1000.2 0.0
28/09:30am 17.9 11.3 10.0 60 4.2 N 35 46 19 25 1000.5 1000.6 0.0
28/09:00am 17.8 11.2 9.9 60 4.2 N 35 44 19 24 1001.0 1001.1 0.0
28/08:30am 17.2 11.5 9.9 62 3.8 N 30 39 16 21 1001.6 1001.7 0.0
28/08:00am 17.7 11.3 9.3 58 4.4 N 33 46 18 25 1002.2 1002.2 0.0
28/07:50am 18.3 12.1 9.4 56 4.7 N 32 44 17 24 1002.3 1002.3 0.0
28/07:30am 19.3 16.7 9.5 53 5.2 NNE 13 22 7 12 1002.4 1002.4 0.0
28/07:00am 18.5 13.0 9.3 55 4.9 NE 28 37 15 20 1002.9 1002.9 0.0
28/06:30am 17.9 13.6 9.3 57 4.5 NNE 22 28 12 15 1003.2 1003.2 0.0
28/06:00am 20.4 16.6 7.4 43 6.7 WNW 17 30 9 16 1003.3 1003.3 0.0
28/05:30am 19.4 16.9 8.1 48 5.8 NW 11 30 6 16 1003.6 1003.6 0.0
28/05:00am 17.2 13.4 9.9 62 3.9 N 20 24 11 13 1003.7 1003.7 0.0
28/04:30am 16.9 13.6 9.6 62 3.8 N 17 26 9 14 1004.1 1004.1 0.0
28/04:00am 16.7 12.8 9.4 62 3.8 N 20 33 11 18 1004.3 1004.3 0.0
28/03:30am 16.6 13.6 9.1 61 3.9 N 15 24 8 13 1004.8 1004.8 0.0
28/03:00am 15.2 13.7 9.1 67 3.1 N 7 11 4 6 1005.2 1005.2 0.0
28/02:30am 15.2 10.1 9.3 68 3.0 NNE 26 35 14 19 1005.7 1005.7 0.0
28/02:00am 14.6 9.6 9.4 71 2.7 N 26 39 14 21 1006.5 1006.5 0.0
28/01:30am 14.2 9.2 9.4 73 2.5 N 26 32 14 17 1007.2 1007.2 0.0
28/01:00am 14.3 9.3 9.7 74 2.4 N 26 33 14 18 1007.9 1007.9 0.0
28/12:30am 13.4 8.1 9.8 79 1.8 NNE 28 37 15 20 1008.5 1008.5 0.0
28/12:00am 13.5 9.3 9.9 79 1.9 NE 22 28 12 15 1008.9 1008.9 0.0
 
Date/Time
EST
Temp
°C
App
Temp
°C
Dew
Point
Rel
Hum
%
Delta-T
°C
Wind Press
QNH
hPa
Press
MSL
hPa
Rain
since 9 am
mm
Dir
 
Spd
km/h
Gust
km/h
Spd
kts
Gust
kts
27/11:30pm 13.6 9.1 10.2 80 1.8 NE 24 35 13 19 1009.5 1009.5 0.0
27/11:00pm 13.4 8.6 10.2 81 1.7 NNE 26 33 14 18 1010.1 1010.1 0.0
27/10:30pm 13.5 9.9 10.7 83 1.5 NNE 20 26 11 14 1010.9 1010.9 0.0

Other Formats:

Comma delimited format used in spreadsheet applications
http://www.bom.gov.au/fwo/IDT60801/IDT60801.94988.axf

JavaScript Object Notation format (JSON) in row-major order
http://www.bom.gov.au/fwo/IDT60801/IDT60801.94988.json